sensor_id;sensor_type;location;lat;lon;timestamp;P1;durP1;ratioP1;P2;durP2;ratioP2
22965;SDS011;11649;48.090;9.754;2023-06-04T00:00:13;101.80;;;95.13;;
22965;SDS011;11649;48.090;9.754;2023-06-04T00:02:41;96.10;;;89.68;;
22965;SDS011;11649;48.090;9.754;2023-06-04T00:05:08;97.43;;;90.90;;
22965;SDS011;11649;48.090;9.754;2023-06-04T00:07:35;95.90;;;89.47;;
22965;SDS011;11649;48.090;9.754;2023-06-04T00:10:03;97.38;;;90.93;;
22965;SDS011;11649;48.090;9.754;2023-06-04T00:12:31;100.57;;;93.88;;
22965;SDS011;11649;48.090;9.754;2023-06-04T00:14:57;99.63;;;92.82;;
22965;SDS011;11649;48.090;9.754;2023-06-04T00:17:24;105.65;;;98.68;;
22965;SDS011;11649;48.090;9.754;2023-06-04T00:19:51;102.25;;;95.20;;
22965;SDS011;11649;48.090;9.754;2023-06-04T00:22:18;102.00;;;95.07;;
22965;SDS011;11649;48.090;9.754;2023-06-04T00:24:44;101.90;;;94.90;;
22965;SDS011;11649;48.090;9.754;2023-06-04T00:27:11;100.00;;;93.10;;
22965;SDS011;11649;48.090;9.754;2023-06-04T00:29:38;98.68;;;92.03;;
22965;SDS011;11649;48.090;9.754;2023-06-04T00:32:05;100.05;;;93.30;;
22965;SDS011;11649;48.090;9.754;2023-06-04T00:34:32;102.05;;;95.05;;
22965;SDS011;11649;48.090;9.754;2023-06-04T00:36:59;104.20;;;97.20;;
22965;SDS011;11649;48.090;9.754;2023-06-04T00:39:27;106.13;;;98.95;;
22965;SDS011;11649;48.090;9.754;2023-06-04T00:41:55;104.60;;;97.57;;
22965;SDS011;11649;48.090;9.754;2023-06-04T00:44:22;110.07;;;102.82;;
22965;SDS011;11649;48.090;9.754;2023-06-04T00:46:51;101.38;;;94.68;;
22965;SDS011;11649;48.090;9.754;2023-06-04T00:49:20;104.72;;;97.93;;
22965;SDS011;11649;48.090;9.754;2023-06-04T00:51:46;107.53;;;100.40;;
22965;SDS011;11649;48.090;9.754;2023-06-04T00:54:13;108.32;;;101.05;;
22965;SDS011;11649;48.090;9.754;2023-06-04T00:56:44;106.75;;;99.60;;
22965;SDS011;11649;48.090;9.754;2023-06-04T00:59:11;110.30;;;103.07;;
22965;SDS011;11649;48.090;9.754;2023-06-04T01:01:43;106.28;;;99.07;;
22965;SDS011;11649;48.090;9.754;2023-06-04T01:04:36;112.30;;;104.93;;
22965;SDS011;11649;48.090;9.754;2023-06-04T01:07:19;108.70;;;101.40;;
22965;SDS011;11649;48.090;9.754;2023-06-04T01:09:47;109.97;;;102.43;;
22965;SDS011;11649;48.090;9.754;2023-06-04T01:12:15;110.20;;;102.70;;
22965;SDS011;11649;48.090;9.754;2023-06-04T01:14:42;107.70;;;100.57;;
22965;SDS011;11649;48.090;9.754;2023-06-04T01:17:26;110.05;;;102.57;;
22965;SDS011;11649;48.090;9.754;2023-06-04T01:25:31;111.45;;;104.05;;
22965;SDS011;11649;48.090;9.754;2023-06-04T01:28:03;111.18;;;103.80;;
22965;SDS011;11649;48.090;9.754;2023-06-04T01:30:32;113.05;;;105.35;;
22965;SDS011;11649;48.090;9.754;2023-06-04T01:33:09;112.85;;;105.25;;
22965;SDS011;11649;48.090;9.754;2023-06-04T01:43:13;110.95;;;103.68;;
22965;SDS011;11649;48.090;9.754;2023-06-04T01:45:39;102.30;;;95.50;;
22965;SDS011;11649;48.090;9.754;2023-06-04T01:48:06;118.32;;;110.40;;
22965;SDS011;11649;48.090;9.754;2023-06-04T01:50:33;105.72;;;98.65;;
22965;SDS011;11649;48.090;9.754;2023-06-04T01:53:00;113.10;;;105.53;;
22965;SDS011;11649;48.090;9.754;2023-06-04T01:55:27;113.55;;;105.88;;
22965;SDS011;11649;48.090;9.754;2023-06-04T01:57:55;107.50;;;100.40;;
22965;SDS011;11649;48.090;9.754;2023-06-04T02:00:22;110.38;;;103.07;;
22965;SDS011;11649;48.090;9.754;2023-06-04T02:02:49;110.65;;;103.38;;
22965;SDS011;11649;48.090;9.754;2023-06-04T02:05:16;117.05;;;109.43;;
22965;SDS011;11649;48.090;9.754;2023-06-04T02:07:45;115.03;;;107.45;;
22965;SDS011;11649;48.090;9.754;2023-06-04T02:10:15;114.35;;;106.63;;
22965;SDS011;11649;48.090;9.754;2023-06-04T02:15:22;112.05;;;104.75;;
22965;SDS011;11649;48.090;9.754;2023-06-04T02:17:50;115.95;;;108.30;;
22965;SDS011;11649;48.090;9.754;2023-06-04T02:20:17;113.38;;;105.88;;
22965;SDS011;11649;48.090;9.754;2023-06-04T02:22:44;111.18;;;103.43;;
22965;SDS011;11649;48.090;9.754;2023-06-04T02:25:11;109.15;;;102.00;;
22965;SDS011;11649;48.090;9.754;2023-06-04T02:27:37;117.30;;;109.43;;
22965;SDS011;11649;48.090;9.754;2023-06-04T02:30:04;118.05;;;110.03;;
22965;SDS011;11649;48.090;9.754;2023-06-04T02:32:32;114.38;;;106.60;;
22965;SDS011;11649;48.090;9.754;2023-06-04T02:35:00;108.97;;;101.88;;
22965;SDS011;11649;48.090;9.754;2023-06-04T02:37:26;119.00;;;111.20;;
22965;SDS011;11649;48.090;9.754;2023-06-04T02:39:53;116.70;;;108.93;;
22965;SDS011;11649;48.090;9.754;2023-06-04T02:42:20;122.15;;;114.22;;
22965;SDS011;11649;48.090;9.754;2023-06-04T02:44:46;118.60;;;110.68;;
22965;SDS011;11649;48.090;9.754;2023-06-04T02:47:13;118.25;;;110.32;;
22965;SDS011;11649;48.090;9.754;2023-06-04T02:49:40;119.35;;;111.60;;
22965;SDS011;11649;48.090;9.754;2023-06-04T02:52:07;121.32;;;113.50;;
22965;SDS011;11649;48.090;9.754;2023-06-04T02:54:33;121.13;;;113.18;;
22965;SDS011;11649;48.090;9.754;2023-06-04T02:57:00;122.18;;;113.63;;
22965;SDS011;11649;48.090;9.754;2023-06-04T02:59:27;123.28;;;115.15;;
22965;SDS011;11649;48.090;9.754;2023-06-04T03:01:54;119.15;;;111.38;;
22965;SDS011;11649;48.090;9.754;2023-06-04T03:04:21;114.03;;;106.55;;
22965;SDS011;11649;48.090;9.754;2023-06-04T03:06:48;117.60;;;109.85;;
22965;SDS011;11649;48.090;9.754;2023-06-04T03:09:23;116.45;;;108.88;;
22965;SDS011;11649;48.090;9.754;2023-06-04T03:11:50;120.50;;;112.55;;
22965;SDS011;11649;48.090;9.754;2023-06-04T03:14:20;114.40;;;106.88;;
22965;SDS011;11649;48.090;9.754;2023-06-04T03:16:47;110.35;;;103.13;;
22965;SDS011;11649;48.090;9.754;2023-06-04T03:19:15;119.28;;;111.45;;
22965;SDS011;11649;48.090;9.754;2023-06-04T03:21:42;121.95;;;113.90;;
22965;SDS011;11649;48.090;9.754;2023-06-04T03:24:11;118.80;;;110.97;;
22965;SDS011;11649;48.090;9.754;2023-06-04T03:26:38;122.50;;;114.50;;
22965;SDS011;11649;48.090;9.754;2023-06-04T03:29:04;118.40;;;110.70;;
22965;SDS011;11649;48.090;9.754;2023-06-04T03:31:32;128.32;;;120.07;;
22965;SDS011;11649;48.090;9.754;2023-06-04T03:33:59;120.95;;;113.18;;
22965;SDS011;11649;48.090;9.754;2023-06-04T03:36:26;118.85;;;111.25;;
22965;SDS011;11649;48.090;9.754;2023-06-04T03:38:58;116.03;;;108.50;;
22965;SDS011;11649;48.090;9.754;2023-06-04T03:41:24;110.88;;;103.63;;
22965;SDS011;11649;48.090;9.754;2023-06-04T03:43:52;121.07;;;113.20;;
22965;SDS011;11649;48.090;9.754;2023-06-04T03:46:19;113.53;;;106.18;;
22965;SDS011;11649;48.090;9.754;2023-06-04T03:48:45;105.35;;;98.53;;
22965;SDS011;11649;48.090;9.754;2023-06-04T03:51:12;108.53;;;101.40;;
22965;SDS011;11649;48.090;9.754;2023-06-04T03:53:39;105.85;;;98.95;;
22965;SDS011;11649;48.090;9.754;2023-06-04T03:56:07;108.35;;;101.30;;
22965;SDS011;11649;48.090;9.754;2023-06-04T03:58:37;104.57;;;97.70;;
22965;SDS011;11649;48.090;9.754;2023-06-04T04:01:03;105.93;;;99.13;;
22965;SDS011;11649;48.090;9.754;2023-06-04T04:03:33;105.45;;;98.57;;
22965;SDS011;11649;48.090;9.754;2023-06-04T04:06:01;105.53;;;98.72;;
22965;SDS011;11649;48.090;9.754;2023-06-04T04:08:28;107.13;;;100.20;;
22965;SDS011;11649;48.090;9.754;2023-06-04T04:10:57;108.68;;;101.65;;
22965;SDS011;11649;48.090;9.754;2023-06-04T04:13:24;110.28;;;103.07;;
22965;SDS011;11649;48.090;9.754;2023-06-04T04:15:51;104.65;;;97.95;;
22965;SDS011;11649;48.090;9.754;2023-06-04T04:18:21;110.93;;;103.90;;
22965;SDS011;11649;48.090;9.754;2023-06-04T04:20:48;110.90;;;103.68;;
22965;SDS011;11649;48.090;9.754;2023-06-04T04:23:15;103.38;;;96.78;;
22965;SDS011;11649;48.090;9.754;2023-06-04T04:25:43;109.90;;;102.95;;
22965;SDS011;11649;48.090;9.754;2023-06-04T04:28:10;108.68;;;101.43;;
22965;SDS011;11649;48.090;9.754;2023-06-04T04:30:38;101.13;;;94.70;;
22965;SDS011;11649;48.090;9.754;2023-06-04T04:33:06;99.22;;;92.80;;
22965;SDS011;11649;48.090;9.754;2023-06-04T04:35:33;106.78;;;99.82;;
22965;SDS011;11649;48.090;9.754;2023-06-04T04:38:00;100.22;;;93.72;;
22965;SDS011;11649;48.090;9.754;2023-06-04T04:40:30;100.47;;;94.13;;
22965;SDS011;11649;48.090;9.754;2023-06-04T04:42:58;100.28;;;93.88;;
22965;SDS011;11649;48.090;9.754;2023-06-04T04:45:24;101.38;;;94.82;;
22965;SDS011;11649;48.090;9.754;2023-06-04T04:47:51;100.00;;;93.53;;
22965;SDS011;11649;48.090;9.754;2023-06-04T04:50:18;92.65;;;86.63;;
22965;SDS011;11649;48.090;9.754;2023-06-04T04:52:45;98.10;;;91.55;;
22965;SDS011;11649;48.090;9.754;2023-06-04T04:55:12;97.28;;;90.90;;
22965;SDS011;11649;48.090;9.754;2023-06-04T04:57:39;96.15;;;90.05;;
22965;SDS011;11649;48.090;9.754;2023-06-04T05:00:06;95.55;;;89.43;;
22965;SDS011;11649;48.090;9.754;2023-06-04T05:02:35;98.50;;;92.22;;
22965;SDS011;11649;48.090;9.754;2023-06-04T05:05:03;100.07;;;93.60;;
22965;SDS011;11649;48.090;9.754;2023-06-04T05:07:30;101.75;;;94.97;;
22965;SDS011;11649;48.090;9.754;2023-06-04T05:09:57;95.68;;;89.50;;
22965;SDS011;11649;48.090;9.754;2023-06-04T05:12:25;106.40;;;99.40;;
22965;SDS011;11649;48.090;9.754;2023-06-04T05:14:53;97.85;;;91.28;;
22965;SDS011;11649;48.090;9.754;2023-06-04T05:17:19;102.22;;;95.55;;
22965;SDS011;11649;48.090;9.754;2023-06-04T05:19:56;95.47;;;89.32;;
22965;SDS011;11649;48.090;9.754;2023-06-04T05:22:28;96.45;;;90.20;;
22965;SDS011;11649;48.090;9.754;2023-06-04T05:24:55;91.80;;;85.82;;
22965;SDS011;11649;48.090;9.754;2023-06-04T05:27:25;95.93;;;89.82;;
22965;SDS011;11649;48.090;9.754;2023-06-04T05:29:52;100.07;;;93.60;;
22965;SDS011;11649;48.090;9.754;2023-06-04T05:32:19;93.05;;;86.88;;
22965;SDS011;11649;48.090;9.754;2023-06-04T05:34:49;93.03;;;86.88;;
22965;SDS011;11649;48.090;9.754;2023-06-04T05:37:16;90.65;;;84.55;;
22965;SDS011;11649;48.090;9.754;2023-06-04T05:39:42;90.43;;;84.55;;
22965;SDS011;11649;48.090;9.754;2023-06-04T05:42:09;94.10;;;87.95;;
22965;SDS011;11649;48.090;9.754;2023-06-04T05:44:36;87.05;;;81.22;;
22965;SDS011;11649;48.090;9.754;2023-06-04T05:47:03;87.70;;;81.82;;
22965;SDS011;11649;48.090;9.754;2023-06-04T05:49:30;84.05;;;78.57;;
22965;SDS011;11649;48.090;9.754;2023-06-04T05:51:57;87.15;;;81.45;;
22965;SDS011;11649;48.090;9.754;2023-06-04T05:54:23;84.95;;;79.43;;
22965;SDS011;11649;48.090;9.754;2023-06-04T05:56:50;86.90;;;81.25;;
22965;SDS011;11649;48.090;9.754;2023-06-04T05:59:17;85.60;;;80.03;;
22965;SDS011;11649;48.090;9.754;2023-06-04T06:01:44;86.68;;;80.93;;
22965;SDS011;11649;48.090;9.754;2023-06-04T06:04:10;81.28;;;75.75;;
22965;SDS011;11649;48.090;9.754;2023-06-04T06:06:38;77.15;;;71.88;;
22965;SDS011;11649;48.090;9.754;2023-06-04T06:09:05;77.50;;;72.28;;
22965;SDS011;11649;48.090;9.754;2023-06-04T06:11:32;81.25;;;75.93;;
22965;SDS011;11649;48.090;9.754;2023-06-04T06:13:59;82.28;;;76.18;;
22965;SDS011;11649;48.090;9.754;2023-06-04T06:16:27;79.75;;;74.55;;
22965;SDS011;11649;48.090;9.754;2023-06-04T06:18:53;77.57;;;72.15;;
22965;SDS011;11649;48.090;9.754;2023-06-04T06:21:21;81.03;;;75.45;;
22965;SDS011;11649;48.090;9.754;2023-06-04T06:23:47;80.60;;;75.28;;
22965;SDS011;11649;48.090;9.754;2023-06-04T06:26:14;72.70;;;67.97;;
22965;SDS011;11649;48.090;9.754;2023-06-04T06:28:45;77.03;;;71.95;;
22965;SDS011;11649;48.090;9.754;2023-06-04T06:31:12;73.07;;;68.22;;
22965;SDS011;11649;48.090;9.754;2023-06-04T06:33:38;75.50;;;70.40;;
22965;SDS011;11649;48.090;9.754;2023-06-04T06:36:11;81.22;;;75.57;;
22965;SDS011;11649;48.090;9.754;2023-06-04T06:38:38;78.90;;;73.68;;
22965;SDS011;11649;48.090;9.754;2023-06-04T06:41:06;78.13;;;73.03;;
22965;SDS011;11649;48.090;9.754;2023-06-04T06:43:34;69.57;;;64.82;;
22965;SDS011;11649;48.090;9.754;2023-06-04T06:46:01;75.70;;;70.60;;
22965;SDS011;11649;48.090;9.754;2023-06-04T06:48:28;74.95;;;69.75;;
22965;SDS011;11649;48.090;9.754;2023-06-04T06:50:55;69.15;;;64.57;;
22965;SDS011;11649;48.090;9.754;2023-06-04T06:53:21;68.85;;;64.25;;
22965;SDS011;11649;48.090;9.754;2023-06-04T06:55:48;68.25;;;63.42;;
22965;SDS011;11649;48.090;9.754;2023-06-04T06:58:15;70.78;;;65.45;;
22965;SDS011;11649;48.090;9.754;2023-06-04T07:00:43;68.57;;;63.95;;
22965;SDS011;11649;48.090;9.754;2023-06-04T07:03:10;65.72;;;61.20;;
22965;SDS011;11649;48.090;9.754;2023-06-04T07:05:37;69.97;;;65.22;;
22965;SDS011;11649;48.090;9.754;2023-06-04T07:08:03;67.43;;;62.72;;
22965;SDS011;11649;48.090;9.754;2023-06-04T07:10:30;63.85;;;59.65;;
22965;SDS011;11649;48.090;9.754;2023-06-04T07:12:57;67.60;;;63.13;;
22965;SDS011;11649;48.090;9.754;2023-06-04T07:15:24;67.43;;;62.72;;
22965;SDS011;11649;48.090;9.754;2023-06-04T07:17:50;67.13;;;62.38;;
22965;SDS011;11649;48.090;9.754;2023-06-04T07:20:17;66.07;;;61.55;;
22965;SDS011;11649;48.090;9.754;2023-06-04T07:22:44;63.30;;;58.90;;
22965;SDS011;11649;48.090;9.754;2023-06-04T07:25:11;67.13;;;62.38;;
22965;SDS011;11649;48.090;9.754;2023-06-04T07:27:38;66.03;;;61.60;;
22965;SDS011;11649;48.090;9.754;2023-06-04T07:30:06;66.30;;;61.65;;
22965;SDS011;11649;48.090;9.754;2023-06-04T07:32:33;65.18;;;60.33;;
22965;SDS011;11649;48.090;9.754;2023-06-04T07:35:01;66.05;;;61.45;;
22965;SDS011;11649;48.090;9.754;2023-06-04T07:37:29;60.53;;;56.25;;
22965;SDS011;11649;48.090;9.754;2023-06-04T07:40:04;61.83;;;57.45;;
22965;SDS011;11649;48.090;9.754;2023-06-04T07:42:31;57.08;;;52.92;;
22965;SDS011;11649;48.090;9.754;2023-06-04T07:44:59;60.47;;;56.33;;
22965;SDS011;11649;48.090;9.754;2023-06-04T07:47:26;57.70;;;53.88;;
22965;SDS011;11649;48.090;9.754;2023-06-04T07:49:54;57.47;;;53.47;;
22965;SDS011;11649;48.090;9.754;2023-06-04T07:52:27;60.83;;;56.17;;
22965;SDS011;11649;48.090;9.754;2023-06-04T07:55:15;58.00;;;53.80;;
22965;SDS011;11649;48.090;9.754;2023-06-04T07:57:42;59.28;;;54.88;;
22965;SDS011;11649;48.090;9.754;2023-06-04T08:00:10;59.65;;;55.55;;
22965;SDS011;11649;48.090;9.754;2023-06-04T08:02:38;57.00;;;52.90;;
22965;SDS011;11649;48.090;9.754;2023-06-04T08:05:06;56.45;;;52.40;;
22965;SDS011;11649;48.090;9.754;2023-06-04T08:07:33;54.45;;;50.67;;
22965;SDS011;11649;48.090;9.754;2023-06-04T08:10:01;56.97;;;53.03;;
22965;SDS011;11649;48.090;9.754;2023-06-04T08:12:28;56.67;;;52.88;;
22965;SDS011;11649;48.090;9.754;2023-06-04T08:15:00;55.75;;;51.88;;
22965;SDS011;11649;48.090;9.754;2023-06-04T08:20:29;54.85;;;51.10;;
22965;SDS011;11649;48.090;9.754;2023-06-04T08:23:29;57.17;;;53.15;;
22965;SDS011;11649;48.090;9.754;2023-06-04T08:27:10;53.78;;;49.78;;
22965;SDS011;11649;48.090;9.754;2023-06-04T08:30:14;52.50;;;48.67;;
22965;SDS011;11649;48.090;9.754;2023-06-04T08:32:46;53.38;;;49.58;;
22965;SDS011;11649;48.090;9.754;2023-06-04T08:35:16;55.88;;;52.15;;
22965;SDS011;11649;48.090;9.754;2023-06-04T08:37:43;52.33;;;48.63;;
22965;SDS011;11649;48.090;9.754;2023-06-04T08:40:11;47.45;;;44.20;;
22965;SDS011;11649;48.090;9.754;2023-06-04T08:42:52;50.97;;;47.58;;
22965;SDS011;11649;48.090;9.754;2023-06-04T08:45:57;46.65;;;43.47;;
22965;SDS011;11649;48.090;9.754;2023-06-04T08:48:52;45.10;;;42.00;;
22965;SDS011;11649;48.090;9.754;2023-06-04T08:51:33;50.67;;;47.28;;
22965;SDS011;11649;48.090;9.754;2023-06-04T08:54:05;48.67;;;45.28;;
22965;SDS011;11649;48.090;9.754;2023-06-04T08:56:36;44.78;;;41.42;;
22965;SDS011;11649;48.090;9.754;2023-06-04T08:59:04;47.45;;;43.95;;
22965;SDS011;11649;48.090;9.754;2023-06-04T09:01:46;48.95;;;45.55;;
22965;SDS011;11649;48.090;9.754;2023-06-04T09:04:13;46.63;;;43.45;;
22965;SDS011;11649;48.090;9.754;2023-06-04T09:07:08;43.58;;;40.58;;
22965;SDS011;11649;48.090;9.754;2023-06-04T09:09:44;47.63;;;44.03;;
22965;SDS011;11649;48.090;9.754;2023-06-04T09:12:25;46.92;;;43.63;;
22965;SDS011;11649;48.090;9.754;2023-06-04T09:15:04;46.42;;;43.22;;
22965;SDS011;11649;48.090;9.754;2023-06-04T09:17:34;43.65;;;40.58;;
22965;SDS011;11649;48.090;9.754;2023-06-04T09:20:01;42.00;;;38.92;;
22965;SDS011;11649;48.090;9.754;2023-06-04T09:22:35;39.35;;;36.55;;
22965;SDS011;11649;48.090;9.754;2023-06-04T09:25:03;38.10;;;35.47;;
22965;SDS011;11649;48.090;9.754;2023-06-04T09:27:39;39.70;;;36.80;;
22965;SDS011;11649;48.090;9.754;2023-06-04T09:37:17;38.08;;;35.42;;
22965;SDS011;11649;48.090;9.754;2023-06-04T09:39:57;37.03;;;34.45;;
22965;SDS011;11649;48.090;9.754;2023-06-04T09:46:29;34.78;;;32.17;;
22965;SDS011;11649;48.090;9.754;2023-06-04T09:49:04;37.63;;;35.05;;
22965;SDS011;11649;48.090;9.754;2023-06-04T09:51:59;34.15;;;31.63;;
22965;SDS011;11649;48.090;9.754;2023-06-04T09:54:40;36.42;;;33.90;;
22965;SDS011;11649;48.090;9.754;2023-06-04T09:57:15;38.55;;;35.50;;
22965;SDS011;11649;48.090;9.754;2023-06-04T09:59:54;34.80;;;32.15;;
22965;SDS011;11649;48.090;9.754;2023-06-04T10:02:49;33.38;;;30.88;;
22965;SDS011;11649;48.090;9.754;2023-06-04T10:05:35;33.53;;;31.08;;
22965;SDS011;11649;48.090;9.754;2023-06-04T10:08:12;32.43;;;30.10;;
22965;SDS011;11649;48.090;9.754;2023-06-04T10:10:46;30.85;;;28.65;;
22965;SDS011;11649;48.090;9.754;2023-06-04T10:16:59;31.13;;;28.60;;
22965;SDS011;11649;48.090;9.754;2023-06-04T10:19:27;30.55;;;27.73;;
22965;SDS011;11649;48.090;9.754;2023-06-04T10:21:55;31.08;;;28.63;;
22965;SDS011;11649;48.090;9.754;2023-06-04T10:24:24;30.17;;;27.98;;
22965;SDS011;11649;48.090;9.754;2023-06-04T10:26:54;30.40;;;28.00;;
22965;SDS011;11649;48.090;9.754;2023-06-04T10:29:25;29.52;;;27.40;;
22965;SDS011;11649;48.090;9.754;2023-06-04T10:31:55;29.08;;;27.02;;
22965;SDS011;11649;48.090;9.754;2023-06-04T10:34:22;29.17;;;27.08;;
22965;SDS011;11649;48.090;9.754;2023-06-04T10:36:49;33.95;;;31.45;;
22965;SDS011;11649;48.090;9.754;2023-06-04T10:39:27;33.95;;;31.55;;
22965;SDS011;11649;48.090;9.754;2023-06-04T10:44:28;28.85;;;26.58;;
22965;SDS011;11649;48.090;9.754;2023-06-04T10:46:58;29.45;;;27.25;;
22965;SDS011;11649;48.090;9.754;2023-06-04T10:49:26;30.50;;;28.20;;
22965;SDS011;11649;48.090;9.754;2023-06-04T10:51:57;32.55;;;30.17;;
22965;SDS011;11649;48.090;9.754;2023-06-04T10:54:29;31.17;;;28.77;;
22965;SDS011;11649;48.090;9.754;2023-06-04T10:56:56;29.83;;;27.52;;
22965;SDS011;11649;48.090;9.754;2023-06-04T10:59:23;30.75;;;28.50;;
22965;SDS011;11649;48.090;9.754;2023-06-04T11:01:51;31.85;;;29.50;;
22965;SDS011;11649;48.090;9.754;2023-06-04T11:04:35;30.77;;;28.40;;
22965;SDS011;11649;48.090;9.754;2023-06-04T11:07:07;29.40;;;27.10;;
22965;SDS011;11649;48.090;9.754;2023-06-04T11:09:37;34.17;;;31.67;;
22965;SDS011;11649;48.090;9.754;2023-06-04T11:12:13;31.27;;;29.08;;
22965;SDS011;11649;48.090;9.754;2023-06-04T11:14:40;32.50;;;29.85;;
22965;SDS011;11649;48.090;9.754;2023-06-04T11:17:10;33.97;;;31.40;;
22965;SDS011;11649;48.090;9.754;2023-06-04T11:19:38;30.33;;;28.15;;
22965;SDS011;11649;48.090;9.754;2023-06-04T11:22:06;28.20;;;26.20;;
22965;SDS011;11649;48.090;9.754;2023-06-04T11:24:37;27.98;;;25.67;;
22965;SDS011;11649;48.090;9.754;2023-06-04T11:27:04;33.83;;;31.42;;
22965;SDS011;11649;48.090;9.754;2023-06-04T11:29:42;31.23;;;28.80;;
22965;SDS011;11649;48.090;9.754;2023-06-04T11:32:09;27.92;;;25.92;;
22965;SDS011;11649;48.090;9.754;2023-06-04T11:34:46;28.42;;;26.42;;
22965;SDS011;11649;48.090;9.754;2023-06-04T11:39:43;28.48;;;26.42;;
22965;SDS011;11649;48.090;9.754;2023-06-04T11:42:10;29.90;;;27.80;;
22965;SDS011;11649;48.090;9.754;2023-06-04T11:44:37;30.65;;;28.35;;
22965;SDS011;11649;48.090;9.754;2023-06-04T11:47:06;31.98;;;29.70;;
22965;SDS011;11649;48.090;9.754;2023-06-04T11:49:35;33.08;;;30.73;;
22965;SDS011;11649;48.090;9.754;2023-06-04T11:52:03;28.15;;;26.10;;
22965;SDS011;11649;48.090;9.754;2023-06-04T11:54:30;35.17;;;32.20;;
22965;SDS011;11649;48.090;9.754;2023-06-04T11:57:03;30.75;;;28.45;;
22965;SDS011;11649;48.090;9.754;2023-06-04T11:59:31;34.10;;;31.73;;
22965;SDS011;11649;48.090;9.754;2023-06-04T12:01:58;29.17;;;27.10;;
22965;SDS011;11649;48.090;9.754;2023-06-04T12:04:29;29.88;;;27.38;;
22965;SDS011;11649;48.090;9.754;2023-06-04T12:06:58;33.65;;;31.10;;
22965;SDS011;11649;48.090;9.754;2023-06-04T12:09:29;30.95;;;28.65;;
22965;SDS011;11649;48.090;9.754;2023-06-04T12:12:02;32.00;;;29.60;;
22965;SDS011;11649;48.090;9.754;2023-06-04T12:14:30;34.05;;;31.40;;
22965;SDS011;11649;48.090;9.754;2023-06-04T12:17:07;28.60;;;26.40;;
22965;SDS011;11649;48.090;9.754;2023-06-04T12:19:46;29.98;;;27.35;;
22965;SDS011;11649;48.090;9.754;2023-06-04T12:22:17;32.33;;;30.05;;
22965;SDS011;11649;48.090;9.754;2023-06-04T12:24:48;31.38;;;29.05;;
22965;SDS011;11649;48.090;9.754;2023-06-04T12:27:23;30.20;;;27.98;;
22965;SDS011;11649;48.090;9.754;2023-06-04T12:29:58;30.00;;;27.65;;
22965;SDS011;11649;48.090;9.754;2023-06-04T12:32:29;30.42;;;28.05;;
22965;SDS011;11649;48.090;9.754;2023-06-04T12:34:56;28.00;;;25.85;;
22965;SDS011;11649;48.090;9.754;2023-06-04T12:37:23;27.50;;;25.50;;
22965;SDS011;11649;48.090;9.754;2023-06-04T12:42:34;28.73;;;26.63;;
22965;SDS011;11649;48.090;9.754;2023-06-04T12:45:01;33.47;;;30.77;;
22965;SDS011;11649;48.090;9.754;2023-06-04T12:47:29;28.55;;;26.42;;
22965;SDS011;11649;48.090;9.754;2023-06-04T12:49:57;31.25;;;28.95;;
22965;SDS011;11649;48.090;9.754;2023-06-04T12:52:24;30.73;;;28.33;;
22965;SDS011;11649;48.090;9.754;2023-06-04T12:54:51;36.78;;;33.80;;
22965;SDS011;11649;48.090;9.754;2023-06-04T12:57:17;33.00;;;30.65;;
22965;SDS011;11649;48.090;9.754;2023-06-04T12:59:44;37.80;;;35.05;;
22965;SDS011;11649;48.090;9.754;2023-06-04T13:02:11;35.97;;;33.42;;
22965;SDS011;11649;48.090;9.754;2023-06-04T13:04:40;36.20;;;33.67;;
22965;SDS011;11649;48.090;9.754;2023-06-04T13:07:10;34.63;;;32.13;;
22965;SDS011;11649;48.090;9.754;2023-06-04T13:09:37;32.95;;;30.65;;
22965;SDS011;11649;48.090;9.754;2023-06-04T13:12:04;30.17;;;28.02;;
22965;SDS011;11649;48.090;9.754;2023-06-04T13:14:32;33.15;;;30.88;;
22965;SDS011;11649;48.090;9.754;2023-06-04T13:17:08;33.92;;;31.52;;
22965;SDS011;11649;48.090;9.754;2023-06-04T13:19:47;29.02;;;26.48;;
22965;SDS011;11649;48.090;9.754;2023-06-04T13:22:14;32.00;;;29.67;;
22965;SDS011;11649;48.090;9.754;2023-06-04T13:24:41;33.15;;;30.90;;
22965;SDS011;11649;48.090;9.754;2023-06-04T13:27:08;33.85;;;31.45;;
22965;SDS011;11649;48.090;9.754;2023-06-04T13:29:35;33.13;;;30.38;;
22965;SDS011;11649;48.090;9.754;2023-06-04T13:32:01;34.10;;;31.60;;
22965;SDS011;11649;48.090;9.754;2023-06-04T13:34:35;31.27;;;28.92;;
22965;SDS011;11649;48.090;9.754;2023-06-04T13:37:02;27.10;;;24.98;;
22965;SDS011;11649;48.090;9.754;2023-06-04T13:39:32;29.92;;;27.52;;
22965;SDS011;11649;48.090;9.754;2023-06-04T13:41:59;29.60;;;27.20;;
22965;SDS011;11649;48.090;9.754;2023-06-04T13:44:26;27.80;;;25.83;;
22965;SDS011;11649;48.090;9.754;2023-06-04T13:46:54;25.70;;;23.80;;
22965;SDS011;11649;48.090;9.754;2023-06-04T13:49:21;30.08;;;27.67;;
22965;SDS011;11649;48.090;9.754;2023-06-04T13:51:48;24.60;;;22.48;;
22965;SDS011;11649;48.090;9.754;2023-06-04T13:54:20;29.73;;;27.42;;
22965;SDS011;11649;48.090;9.754;2023-06-04T13:56:47;24.15;;;22.35;;
22965;SDS011;11649;48.090;9.754;2023-06-04T13:59:14;25.10;;;23.17;;
22965;SDS011;11649;48.090;9.754;2023-06-04T14:01:41;21.55;;;19.92;;
22965;SDS011;11649;48.090;9.754;2023-06-04T14:04:08;23.65;;;21.83;;
22965;SDS011;11649;48.090;9.754;2023-06-04T14:06:37;19.45;;;17.70;;
22965;SDS011;11649;48.090;9.754;2023-06-04T14:09:04;18.38;;;16.80;;
22965;SDS011;11649;48.090;9.754;2023-06-04T14:11:37;19.48;;;17.10;;
22965;SDS011;11649;48.090;9.754;2023-06-04T14:14:04;19.10;;;17.70;;
22965;SDS011;11649;48.090;9.754;2023-06-04T14:16:32;17.67;;;16.38;;
22965;SDS011;11649;48.090;9.754;2023-06-04T14:18:59;15.68;;;14.45;;
22965;SDS011;11649;48.090;9.754;2023-06-04T14:21:26;15.52;;;14.23;;
22965;SDS011;11649;48.090;9.754;2023-06-04T14:23:53;16.02;;;14.73;;
22965;SDS011;11649;48.090;9.754;2023-06-04T14:26:20;14.98;;;13.77;;
22965;SDS011;11649;48.090;9.754;2023-06-04T14:28:48;12.90;;;11.88;;
22965;SDS011;11649;48.090;9.754;2023-06-04T14:31:15;13.85;;;12.65;;
22965;SDS011;11649;48.090;9.754;2023-06-04T14:33:42;13.13;;;12.05;;
22965;SDS011;11649;48.090;9.754;2023-06-04T14:36:09;13.45;;;12.40;;
22965;SDS011;11649;48.090;9.754;2023-06-04T14:38:36;13.57;;;12.32;;
22965;SDS011;11649;48.090;9.754;2023-06-04T14:41:03;13.45;;;12.25;;
22965;SDS011;11649;48.090;9.754;2023-06-04T14:43:30;13.27;;;12.30;;
22965;SDS011;11649;48.090;9.754;2023-06-04T14:45:57;14.68;;;13.48;;
22965;SDS011;11649;48.090;9.754;2023-06-04T14:48:24;14.32;;;13.25;;
22965;SDS011;11649;48.090;9.754;2023-06-04T14:50:51;14.75;;;13.50;;
22965;SDS011;11649;48.090;9.754;2023-06-04T14:53:22;13.55;;;12.55;;
22965;SDS011;11649;48.090;9.754;2023-06-04T14:55:49;14.68;;;13.30;;
22965;SDS011;11649;48.090;9.754;2023-06-04T14:58:16;12.55;;;11.57;;
22965;SDS011;11649;48.090;9.754;2023-06-04T15:00:43;13.65;;;12.48;;
22965;SDS011;11649;48.090;9.754;2023-06-04T15:03:10;14.85;;;13.55;;
22965;SDS011;11649;48.090;9.754;2023-06-04T15:05:37;15.00;;;13.43;;
22965;SDS011;11649;48.090;9.754;2023-06-04T15:08:04;14.10;;;12.98;;
22965;SDS011;11649;48.090;9.754;2023-06-04T15:10:31;13.68;;;12.57;;